Time;durP1;ratioP1;P1;durP2;ratioP2;P2;SDS_P1;SDS_P2;PMS_P1;PMS_P2;Temp;Humidity;BMP_temperature;BMP_pressure;BME280_temperature;BME280_humidity;BME280_pressure;Samples;Min_cycle;Max_cycle;Signal;HPM_P1;HPM_P2
2022/01/30 00:01:38;;;;;;;10.02;3.85;;;;;;;2.44;93.56;100459.44;5575690;31;34155;-68
2022/01/30 00:04:41;;;;;;;8.32;3.53;;;;;;;2.25;98.36;100454.75;5589269;31;34424;-68
2022/01/30 00:07:44;;;;;;;11.65;3.67;;;;;;;2.14;100.00;100465.16;5588988;31;34824;-68
2022/01/30 00:10:58;;;;;;;11.12;3.80;;;;;;;2.21;100.00;100460.31;5589217;31;34024;-68
2022/01/30 00:14:02;;;;;;;7.75;3.72;;;;;;;2.14;100.00;100455.53;5589454;31;34738;-69
2022/01/30 00:17:21;;;;;;;12.02;3.87;;;;;;;2.08;100.00;100437.66;5589153;31;34661;-68
2022/01/30 00:20:26;;;;;;;11.68;4.30;;;;;;;2.04;100.00;100433.59;5589319;31;34314;-68
2022/01/30 00:23:31;;;;;;;11.93;4.62;;;;;;;1.98;100.00;100410.50;5588987;31;34655;-67
2022/01/30 00:26:37;;;;;;;8.45;4.43;;;;;;;2.04;100.00;100402.19;5588466;31;34382;-68
2022/01/30 00:29:40;;;;;;;12.68;4.72;;;;;;;1.98;100.00;100394.81;5575387;31;34582;-68
2022/01/30 00:32:44;;;;;;;15.57;4.62;;;;;;;1.99;100.00;100377.31;5575061;31;34005;-68
2022/01/30 00:36:07;;;;;;;10.65;4.03;;;;;;;2.05;100.00;100374.25;5588728;31;33924;-67
2022/01/30 00:39:10;;;;;;;11.00;3.72;;;;;;;2.16;100.00;100374.28;5574827;31;34776;-67
2022/01/30 00:42:13;;;;;;;10.40;3.85;;;;;;;2.30;100.00;100353.16;5588740;31;34667;-67
2022/01/30 00:45:16;;;;;;;15.90;4.18;;;;;;;2.31;99.46;100339.13;5588378;31;34649;-68
2022/01/30 00:48:19;;;;;;;8.88;3.92;;;;;;;2.29;100.00;100340.16;5588534;31;34603;-67
2022/01/30 00:51:21;;;;;;;11.10;3.87;;;;;;;2.33;98.63;100324.09;5588575;31;34562;-67
2022/01/30 00:54:24;;;;;;;14.40;4.45;;;;;;;2.41;97.71;100331.41;5575001;31;34577;-67
2022/01/30 00:57:27;;;;;;;8.85;3.53;;;;;;;2.49;97.56;100323.78;5588420;31;34570;-67
2022/01/30 01:00:30;;;;;;;8.07;3.87;;;;;;;2.56;95.23;100325.81;5588386;31;33934;-67
2022/01/30 01:03:34;;;;;;;13.88;3.87;;;;;;;2.56;94.06;100335.47;5588234;31;34600;-67
2022/01/30 01:06:38;;;;;;;11.82;3.83;;;;;;;2.56;94.11;100315.34;5588162;31;35173;-67
2022/01/30 01:09:43;;;;;;;8.15;3.55;;;;;;;2.69;93.05;100301.28;5588024;31;34846;-67
2022/01/30 01:26:16;;;;;;;10.38;4.10;;;;;;;2.99;92.33;100291.87;5587634;31;34613;-67
2022/01/30 01:29:19;;;;;;;10.02;4.05;;;;;;;3.08;91.25;100271.94;5587749;31;33952;-67
2022/01/30 01:32:22;;;;;;;11.00;3.35;;;;;;;3.11;90.82;100255.97;5587838;31;33952;-67
2022/01/30 01:35:25;;;;;;;10.93;3.87;;;;;;;3.11;90.06;100260.38;5587747;31;34696;-67
2022/01/30 01:38:27;;;;;;;8.93;3.20;;;;;;;3.18;89.42;100266.81;5562508;31;34238;-67
2022/01/30 01:41:32;;;;;;;11.57;4.20;;;;;;;3.20;88.88;100262.25;5576713;31;34260;-67
2022/01/30 01:44:41;;;;;;;11.25;3.87;;;;;;;3.20;87.89;100251.75;5590527;31;34108;-67
2022/01/30 01:47:44;;;;;;;8.02;3.50;;;;;;;3.19;87.49;100242.25;5590843;31;34544;-67
2022/01/30 01:51:05;;;;;;;9.38;3.80;;;;;;;3.13;88.53;100246.22;5590662;31;34138;-67
2022/01/30 01:54:08;;;;;;;10.07;4.00;;;;;;;3.11;88.14;100236.78;5590561;31;34640;-67
2022/01/30 01:57:11;;;;;;;8.23;3.92;;;;;;;3.03;88.18;100208.59;5590508;31;33984;-67
2022/01/30 02:00:14;;;;;;;15.70;4.22;;;;;;;2.95;87.93;100213.63;5590735;31;33959;-67
2022/01/30 02:03:18;;;;;;;12.40;3.60;;;;;;;2.88;88.51;100208.03;5590417;31;34026;-67
2022/01/30 02:06:23;;;;;;;10.80;3.90;;;;;;;2.85;88.38;100216.16;5576711;31;34146;-67
2022/01/30 02:09:30;;;;;;;12.50;3.95;;;;;;;2.67;89.34;100207.13;5576629;31;34688;-67
2022/01/30 02:12:43;;;;;;;8.55;4.07;;;;;;;2.48;90.73;100202.50;5590150;31;34146;-67
2022/01/30 02:25:58;;;;;;;6.93;3.62;;;;;;;2.76;89.39;100176.75;5590219;31;34470;-67
2022/01/30 02:29:00;;;;;;;10.35;4.25;;;;;;;2.84;88.71;100175.19;5585914;31;132310;-68
2022/01/30 02:32:03;;;;;;;13.00;4.15;;;;;;;2.95;88.48;100158.59;5590267;31;34320;-67
2022/01/30 02:35:07;;;;;;;8.43;3.42;;;;;;;3.05;88.22;100156.88;5590112;31;33980;-67
2022/01/30 02:38:10;;;;;;;9.88;3.35;;;;;;;3.10;88.03;100135.56;5590458;31;34156;-67
2022/01/30 02:41:13;;;;;;;8.52;3.65;;;;;;;3.25;87.47;100121.16;5576771;31;34198;-67
2022/01/30 02:44:25;;;;;;;6.70;3.33;;;;;;;3.39;86.77;100116.41;5590333;31;34245;-67
2022/01/30 02:51:08;;;;;;;11.45;4.00;;;;;;;3.48;87.82;100131.41;5590277;31;34696;-66
2022/01/30 02:54:11;;;;;;;9.23;3.15;;;;;;;3.74;87.04;100139.69;5590113;31;35148;-67
2022/01/30 02:57:13;;;;;;;5.80;2.85;;;;;;;4.00;86.30;100141.87;5589955;31;35266;-67
2022/01/30 03:00:17;;;;;;;4.10;2.50;;;;;;;4.11;85.41;100131.31;5576262;31;34377;-67
2022/01/30 03:03:20;;;;;;;8.50;2.80;;;;;;;4.25;85.85;100146.69;5576280;31;34463;-67
2022/01/30 03:06:24;;;;;;;5.97;3.00;;;;;;;4.21;85.55;100137.41;5589892;31;35431;-67
2022/01/30 03:09:27;;;;;;;4.95;2.78;;;;;;;4.30;85.35;100131.38;5589807;31;33978;-66
2022/01/30 03:12:30;;;;;;;7.78;2.72;;;;;;;4.42;84.54;100125.03;5590246;31;35224;-67
2022/01/30 03:15:33;;;;;;;5.35;2.60;;;;;;;4.53;83.81;100124.91;5576478;31;34122;-67
2022/01/30 03:18:36;;;;;;;3.28;2.17;;;;;;;4.64;83.86;100116.94;5590093;31;33911;-67
2022/01/30 03:21:39;;;;;;;6.15;2.33;;;;;;;4.69;84.24;100104.22;5589837;31;34286;-67
2022/01/30 03:24:42;;;;;;;5.85;2.60;;;;;;;4.67;84.40;100102.69;5589788;31;34086;-67
2022/01/30 03:27:51;;;;;;;7.00;2.50;;;;;;;4.67;84.76;100100.03;5589497;31;34039;-67
2022/01/30 03:31:00;;;;;;;6.20;2.40;;;;;;;4.57;85.33;100086.06;5589562;31;35331;-67
2022/01/30 03:34:07;;;;;;;6.07;2.25;;;;;;;4.73;85.38;100102.13;5589919;31;33955;-65
2022/01/30 03:37:10;;;;;;;4.35;2.33;;;;;;;4.74;85.23;100080.94;5589683;31;34109;-65
2022/01/30 03:40:13;;;;;;;3.55;2.20;;;;;;;4.92;84.61;100075.84;5589615;31;34573;-67
2022/01/30 03:43:16;;;;;;;5.05;2.10;;;;;;;4.94;84.90;100066.00;5589917;31;34694;-65
2022/01/30 03:46:21;;;;;;;6.75;2.20;;;;;;;4.95;85.18;100046.66;5589352;31;34203;-65
2022/01/30 03:49:44;;;;;;;2.60;1.67;;;;;;;4.83;86.39;100034.66;5589926;31;34019;-67
2022/01/30 03:52:48;;;;;;;3.08;1.60;;;;;;;5.24;86.60;100041.34;5589810;31;33967;-67
2022/01/30 03:55:51;;;;;;;4.32;1.62;;;;;;;5.43;85.64;100070.22;5589498;31;33942;-68
2022/01/30 03:58:54;;;;;;;2.85;1.60;;;;;;;5.40;86.01;100046.03;5589483;31;35249;-67
2022/01/30 04:01:57;;;;;;;3.42;1.70;;;;;;;5.33;86.62;100032.59;5575027;31;34075;-67
2022/01/30 04:05:01;;;;;;;4.22;1.65;;;;;;;5.30;87.69;100035.53;5575714;31;34101;-67
2022/01/30 04:08:06;;;;;;;2.45;1.50;;;;;;;5.32;88.02;100009.91;5589698;31;34650;-68
2022/01/30 04:11:09;;;;;;;2.90;1.77;;;;;;;5.22;88.63;99998.59;5589175;31;35238;-66
2022/01/30 04:14:13;;;;;;;2.85;1.20;;;;;;;4.82;90.81;100004.91;5589132;31;33927;-67
2022/01/30 04:17:18;;;;;;;1.83;1.10;;;;;;;4.65;92.91;100004.75;5575344;31;34158;-66
2022/01/30 04:20:21;;;;;;;2.25;1.08;;;;;;;5.25;90.73;100014.91;5562462;31;34000;-66
2022/01/30 04:23:25;;;;;;;2.03;0.90;;;;;;;5.76;87.36;99986.47;5589477;31;35266;-66
2022/01/30 04:26:28;;;;;;;1.10;0.73;;;;;;;5.64;87.89;99985.81;5588796;31;33901;-66
2022/01/30 04:29:33;;;;;;;1.87;1.17;;;;;;;5.55;88.22;99998.06;5588830;31;34123;-66
2022/01/30 04:32:41;;;;;;;1.02;0.80;;;;;;;5.67;88.39;99996.06;5588874;31;33930;-66
2022/01/30 04:35:45;;;;;;;1.15;0.50;;;;;;;6.02;86.05;99985.66;5589263;31;34330;-66
2022/01/30 04:39:09;;;;;;;2.15;0.70;;;;;;;6.26;84.25;100000.03;5589113;31;33913;-68
2022/01/30 04:52:38;;;;;;;0.90;0.57;;;;;;;7.10;81.12;99966.97;5588879;31;33930;-69
2022/01/30 05:05:40;;;;;;;0.80;0.50;;;;;;;6.79;89.70;99963.13;5588370;31;33970;-68
2022/01/30 05:08:44;;;;;;;2.53;0.55;;;;;;;6.60;91.36;99958.03;5588248;31;34251;-67
2022/01/30 05:11:47;;;;;;;1.27;0.73;;;;;;;6.51;92.25;99950.06;5588321;31;34054;-67
2022/01/30 05:14:52;;;;;;;1.25;0.60;;;;;;;6.41;92.04;99957.22;5577196;31;34385;-67
2022/01/30 05:17:57;;;;;;;0.73;0.60;;;;;;;6.38;92.24;99968.06;5577328;31;35194;-66
2022/01/30 05:21:01;;;;;;;1.40;0.95;;;;;;;6.33;91.68;99959.78;5590684;31;35445;-68
2022/01/30 05:24:04;;;;;;;1.25;0.90;;;;;;;6.29;91.89;99968.16;5577238;31;33947;-67
2022/01/30 05:27:08;;;;;;;0.65;0.60;;;;;;;6.33;91.08;99954.53;5590600;31;34172;-67
2022/01/30 05:30:11;;;;;;;1.33;0.70;;;;;;;6.40;90.44;99973.16;5590705;31;34097;-67
2022/01/30 05:33:15;;;;;;;1.05;0.70;;;;;;;6.55;88.77;99975.12;5590726;31;34046;-67
2022/01/30 05:36:20;;;;;;;1.45;0.82;;;;;;;6.61;88.33;99981.59;5590688;31;34106;-67
2022/01/30 05:39:23;;;;;;;1.12;0.90;;;;;;;6.67;88.25;99993.34;5591052;31;35222;-66
2022/01/30 05:42:28;;;;;;;1.60;1.15;;;;;;;6.36;91.32;99983.19;5590956;31;33900;-66
2022/01/30 05:45:38;;;;;;;2.55;1.15;;;;;;;6.01;94.21;99991.06;5590677;31;33936;-66
2022/01/30 05:48:41;;;;;;;2.00;1.20;;;;;;;5.82;95.58;99983.22;5590523;31;34083;-66
2022/01/30 05:51:45;;;;;;;1.08;0.98;;;;;;;5.70;96.65;99990.50;5590582;31;34714;-67
2022/01/30 05:54:48;;;;;;;1.37;0.80;;;;;;;5.92;95.88;99992.78;5590581;31;33996;-68
2022/01/30 05:57:51;;;;;;;2.53;1.00;;;;;;;5.97;95.60;100003.69;5590471;31;34130;-67
2022/01/30 06:00:55;;;;;;;1.30;0.90;;;;;;;6.05;94.99;100000.34;5590917;31;34327;-68
2022/01/30 06:03:58;;;;;;;4.80;1.25;;;;;;;6.04;95.68;100007.41;5576747;31;33855;-66
2022/01/30 06:07:01;;;;;;;1.60;1.23;;;;;;;5.84;98.35;100007.63;5590414;31;35256;-66
2022/01/30 06:10:05;;;;;;;1.35;1.10;;;;;;;5.66;100.00;100002.31;5590447;31;34324;-69
2022/01/30 06:13:08;;;;;;;1.48;1.02;;;;;;;5.51;100.00;100001.97;5590360;31;33957;-67
2022/01/30 06:16:11;;;;;;;3.12;1.30;;;;;;;5.35;100.00;100014.88;5590414;31;33909;-68
2022/01/30 06:19:14;;;;;;;2.30;1.37;;;;;;;5.33;100.00;100016.81;5590666;31;35176;-67
2022/01/30 06:22:21;;;;;;;1.95;1.08;;;;;;;5.38;100.00;100021.66;5590623;31;33294;-67
2022/01/30 06:25:34;;;;;;;2.17;1.10;;;;;;;5.44;100.00;100034.22;5577409;31;36234;-67
2022/01/30 06:28:40;;;;;;;3.20;1.80;;;;;;;5.47;100.00;100039.22;5590008;31;33918;-68
2022/01/30 06:31:47;;;;;;;2.78;1.27;;;;;;;5.48;100.00;100036.44;5577201;31;34465;-67
2022/01/30 06:34:56;;;;;;;1.25;0.90;;;;;;;5.30;100.00;100034.69;5590157;31;34319;-68
2022/01/30 06:38:01;;;;;;;1.55;0.85;;;;;;;5.12;100.00;100037.22;5576847;31;33954;-68
2022/01/30 06:41:05;;;;;;;0.55;0.50;;;;;;;5.14;100.00;100016.87;5590053;31;34418;-67
2022/01/30 06:44:12;;;;;;;1.10;0.60;;;;;;;5.03;100.00;100031.03;5590111;31;33373;-67
2022/01/30 06:47:22;;;;;;;2.45;0.80;;;;;;;5.00;100.00;100035.72;5590152;31;33777;-67
2022/01/30 06:50:26;;;;;;;1.55;0.90;;;;;;;4.97;100.00;100051.78;5576818;31;34009;-67
2022/01/30 06:53:33;;;;;;;1.80;0.80;;;;;;;5.04;100.00;100053.69;5590122;31;32844;-68
2022/01/30 06:56:38;;;;;;;3.30;1.20;;;;;;;5.04;100.00;100048.44;5590178;31;33303;-67
2022/01/30 06:59:43;;;;;;;1.42;0.73;;;;;;;5.03;100.00;100048.59;5589779;31;34147;-66
2022/01/30 07:02:55;;;;;;;1.10;0.90;;;;;;;5.15;100.00;100052.72;5577525;31;33822;-67
2022/01/30 07:05:59;;;;;;;0.90;0.70;;;;;;;5.11;100.00;100048.72;5589934;31;34704;-68
2022/01/30 07:09:02;;;;;;;1.58;1.00;;;;;;;5.08;100.00;100049.81;5590161;31;33849;-67
2022/01/30 07:12:06;;;;;;;1.27;0.90;;;;;;;5.07;100.00;100028.94;5589866;31;33952;-67
2022/01/30 07:15:09;;;;;;;1.25;0.73;;;;;;;5.08;100.00;100027.97;5589891;31;34746;-67
2022/01/30 07:18:12;;;;;;;1.98;0.80;;;;;;;5.08;100.00;100018.25;5589899;31;34601;-67
2022/01/30 07:21:15;;;;;;;1.50;0.80;;;;;;;5.20;100.00;100009.25;5589748;31;34658;-70
2022/01/30 07:24:18;;;;;;;3.12;0.60;;;;;;;5.20;100.00;100011.88;5589601;31;34585;-67
2022/01/30 07:27:21;;;;;;;0.80;0.60;;;;;;;5.38;100.00;100013.75;5589768;31;34348;-68
2022/01/30 07:30:23;;;;;;;2.10;0.90;;;;;;;5.40;100.00;99996.88;5575830;31;34127;-67
2022/01/30 07:33:26;;;;;;;2.00;0.60;;;;;;;5.52;100.00;100018.53;5590034;31;34728;-71
2022/01/30 07:36:33;;;;;;;2.75;0.88;;;;;;;5.77;95.53;100012.63;5588657;31;34691;-72
2022/01/30 07:39:37;;;;;;;0.82;0.68;;;;;;;5.74;94.58;100026.09;5589780;31;34536;-66
2022/01/30 07:42:40;;;;;;;0.88;0.57;;;;;;;5.86;92.09;100011.75;5589285;31;34101;-68
2022/01/30 07:45:43;;;;;;;1.23;0.50;;;;;;;5.89;90.85;100023.84;5589678;31;34272;-69
2022/01/30 07:48:46;;;;;;;0.88;0.50;;;;;;;5.93;90.46;100027.81;5589275;31;34020;-69
2022/01/30 07:51:49;;;;;;;0.60;0.30;;;;;;;6.00;89.32;100029.72;5589451;31;33916;-67
2022/01/30 07:54:52;;;;;;;1.23;0.50;;;;;;;6.07;85.60;100024.69;5589288;31;34213;-66
2022/01/30 07:57:55;;;;;;;1.27;0.65;;;;;;;6.19;84.22;100039.34;5589172;31;33998;-69
2022/01/30 08:00:58;;;;;;;2.05;0.47;;;;;;;6.27;81.59;100047.31;5589341;31;33978;-69
2022/01/30 08:04:01;;;;;;;1.73;0.50;;;;;;;6.35;80.76;100042.12;5589251;31;33897;-67
2022/01/30 08:07:04;;;;;;;2.25;0.60;;;;;;;6.38;79.76;100043.66;5575417;31;34020;-66
2022/01/30 08:10:12;;;;;;;1.75;0.80;;;;;;;6.50;76.36;100060.87;5575983;31;35177;-68
2022/01/30 08:13:16;;;;;;;3.17;0.70;;;;;;;6.73;72.03;100082.38;5589104;31;34046;-68
2022/01/30 08:16:20;;;;;;;4.95;0.62;;;;;;;6.83;70.99;100060.22;5575320;31;34303;-67
2022/01/30 08:19:24;;;;;;;7.90;0.80;;;;;;;7.18;68.63;100088.37;5588825;31;35312;-69
2022/01/30 08:22:30;;;;;;;1.35;0.55;;;;;;;7.19;67.77;100091.84;5575450;31;35112;-67
2022/01/30 08:25:35;;;;;;;2.58;0.80;;;;;;;7.31;65.81;100095.91;5588983;31;34827;-67
2022/01/30 08:28:38;;;;;;;3.17;0.60;;;;;;;7.22;65.91;100096.78;5588890;31;33963;-69
2022/01/30 08:31:40;;;;;;;5.00;0.85;;;;;;;7.00;67.46;100092.84;5588743;31;34061;-66
2022/01/30 08:34:43;;;;;;;2.42;0.52;;;;;;;6.91;67.72;100080.56;5588719;31;35195;-66
2022/01/30 08:37:47;;;;;;;2.50;0.80;;;;;;;6.88;68.90;100086.12;5574952;31;35256;-67
2022/01/30 08:40:50;;;;;;;4.78;0.82;;;;;;;6.96;68.95;100062.47;5588589;31;34514;-67
2022/01/30 08:43:52;;;;;;;1.87;0.60;;;;;;;6.93;69.78;100102.31;5588540;31;35207;-69
2022/01/30 08:46:55;;;;;;;4.87;0.90;;;;;;;7.01;68.45;100069.94;5589523;31;34633;-68
2022/01/30 08:49:58;;;;;;;2.85;0.65;;;;;;;7.04;69.38;100110.00;5591067;31;34679;-68
2022/01/30 08:53:02;;;;;;;2.33;0.70;;;;;;;7.17;67.84;100089.34;5591176;31;34650;-68
2022/01/30 08:56:04;;;;;;;4.37;0.65;;;;;;;7.23;67.59;100099.28;5577249;31;34197;-67
2022/01/30 08:59:07;;;;;;;4.15;0.90;;;;;;;7.25;68.48;100107.88;5591307;31;34748;-67
2022/01/30 09:02:10;;;;;;;6.85;0.80;;;;;;;7.33;67.87;100099.19;5590753;31;35297;-69
2022/01/30 09:05:13;;;;;;;7.78;0.80;;;;;;;7.31;65.21;100090.63;5590873;31;33993;-69
2022/01/30 09:08:16;;;;;;;2.55;1.00;;;;;;;7.28;65.44;100102.28;5590785;31;34133;-66
2022/01/30 09:11:19;;;;;;;1.95;0.60;;;;;;;7.29;65.39;100117.16;5590815;31;34038;-69
2022/01/30 09:14:23;;;;;;;2.40;0.73;;;;;;;7.26;64.50;100112.16;5591136;31;34537;-70
2022/01/30 09:17:28;;;;;;;5.18;1.27;;;;;;;7.36;63.58;100118.19;5590967;31;34615;-67
2022/01/30 09:20:31;;;;;;;3.12;0.60;;;;;;;7.32;64.07;100123.91;5590415;31;33957;-67
2022/01/30 09:23:33;;;;;;;3.60;0.70;;;;;;;7.40;63.46;100132.75;5590820;31;34747;-68
2022/01/30 09:26:36;;;;;;;6.37;0.70;;;;;;;7.40;62.52;100095.81;5590261;31;35527;-70
2022/01/30 09:29:40;;;;;;;4.07;0.60;;;;;;;7.46;61.91;100110.16;5576860;31;34629;-70
2022/01/30 09:32:43;;;;;;;3.78;0.68;;;;;;;7.43;60.80;100095.47;5590786;31;34360;-69
2022/01/30 09:35:46;;;;;;;4.45;0.80;;;;;;;7.46;58.74;100075.84;5590950;31;33976;-71
2022/01/30 09:38:50;;;;;;;1.55;0.70;;;;;;;7.48;58.58;100060.72;5590664;31;34580;-70
2022/01/30 09:41:53;;;;;;;2.42;0.70;;;;;;;7.43;58.44;100061.19;5590616;31;33903;-72
2022/01/30 09:45:00;;;;;;;1.95;0.50;;;;;;;7.46;57.39;100082.94;5590644;31;33985;-68
2022/01/30 09:48:05;;;;;;;4.05;0.80;;;;;;;7.56;56.34;100086.31;5590727;31;34025;-70
2022/01/30 09:51:09;;;;;;;2.42;0.60;;;;;;;7.51;56.70;100072.75;5590537;31;34234;-68
2022/01/30 09:54:12;;;;;;;2.55;0.90;;;;;;;7.72;56.64;100070.56;5590534;31;35131;-67
2022/01/30 09:57:16;;;;;;;5.12;0.62;;;;;;;7.57;56.19;100062.41;5589869;31;34380;-68
2022/01/30 10:00:19;;;;;;;4.43;1.10;;;;;;;7.50;58.29;100079.88;5589513;31;33991;-69
2022/01/30 10:03:26;;;;;;;1.98;0.70;;;;;;;7.58;56.61;100087.81;5590504;31;33977;-68
2022/01/30 10:06:32;;;;;;;5.30;0.88;;;;;;;7.56;57.21;100096.88;5590344;31;34089;-69
2022/01/30 10:09:37;;;;;;;3.83;0.77;;;;;;;7.71;56.87;100090.03;5576633;31;33952;-68
2022/01/30 10:13:06;;;;;;;1.62;0.52;;;;;;;7.93;57.16;100129.13;5590410;31;34660;-70
2022/01/30 10:16:09;;;;;;;5.85;0.90;;;;;;;7.65;58.74;100093.31;5590294;31;34114;-69
2022/01/30 10:19:17;;;;;;;5.12;0.98;;;;;;;7.68;58.55;100114.97;5590488;31;35227;-69
2022/01/30 10:22:20;;;;;;;2.35;0.73;;;;;;;7.27;58.47;100111.19;5590257;31;34629;-70
2022/01/30 10:25:27;;;;;;;2.85;0.65;;;;;;;7.18;59.52;100114.75;5589967;31;33933;-67
2022/01/30 10:28:32;;;;;;;3.92;0.98;;;;;;;6.86;59.21;100115.28;5589788;31;34231;-68
2022/01/30 10:32:05;;;;;;;1.85;0.70;;;;;;;6.61;59.45;100126.56;5590171;31;33894;-67
2022/01/30 10:35:09;;;;;;;1.60;0.60;;;;;;;6.60;58.11;100124.91;5590041;31;34363;-67
2022/01/30 10:38:23;;;;;;;5.15;0.60;;;;;;;6.61;57.62;100116.03;5576104;31;35242;-67
2022/01/30 10:41:35;;;;;;;3.10;0.60;;;;;;;6.51;57.66;100120.53;5590054;31;34125;-69
2022/01/30 10:44:45;;;;;;;1.20;0.50;;;;;;;6.56;58.08;100120.91;5590197;31;34320;-68
2022/01/30 10:47:48;;;;;;;1.60;0.57;;;;;;;6.52;58.00;100143.28;5576153;31;34036;-67
2022/01/30 10:50:52;;;;;;;3.10;0.65;;;;;;;6.59;57.88;100119.78;5589915;31;34001;-68
2022/01/30 10:54:05;;;;;;;2.12;0.62;;;;;;;6.55;58.30;100119.25;5576124;31;35235;-68
2022/01/30 10:57:10;;;;;;;5.55;0.75;;;;;;;6.53;59.07;100074.59;5575987;31;33955;-68
2022/01/30 11:00:14;;;;;;;4.15;0.77;;;;;;;6.61;59.66;100123.94;5576004;31;34726;-66
2022/01/30 11:03:41;;;;;;;6.07;0.98;;;;;;;6.70;60.20;100111.66;5589774;31;34601;-70
2022/01/30 11:06:46;;;;;;;3.62;0.93;;;;;;;7.15;58.37;100093.94;5576180;31;33921;-69
2022/01/30 11:10:02;;;;;;;4.68;1.10;;;;;;;7.19;56.80;100055.72;5588727;31;33960;-68
2022/01/30 11:13:09;;;;;;;5.03;0.70;;;;;;;7.28;57.09;100086.47;5590108;31;34587;-69
2022/01/30 11:19:39;;;;;;;2.20;0.60;;;;;;;7.37;55.23;100048.59;5589897;31;34336;-66
2022/01/30 11:22:46;;;;;;;2.45;0.70;;;;;;;7.53;53.89;100073.44;5589742;31;34100;-66
2022/01/30 11:25:49;;;;;;;5.47;1.65;;;;;;;7.35;55.64;100074.31;5589722;31;34335;-69
2022/01/30 11:28:52;;;;;;;2.92;0.95;;;;;;;7.25;55.13;100068.31;5589683;31;34362;-70
2022/01/30 11:31:55;;;;;;;2.28;0.77;;;;;;;7.37;54.22;100096.09;5589169;31;34127;-69
2022/01/30 11:34:58;;;;;;;2.47;0.70;;;;;;;7.11;56.02;100074.16;5589480;31;34308;-67
2022/01/30 11:38:02;;;;;;;4.87;0.93;;;;;;;7.14;56.27;100071.19;5589647;31;34052;-68
2022/01/30 11:41:23;;;;;;;4.55;0.73;;;;;;;7.51;54.37;100085.94;5589654;31;33958;-66
2022/01/30 11:44:26;;;;;;;3.70;1.00;;;;;;;7.31;57.50;100109.09;5589589;31;34613;-68
2022/01/30 11:47:42;;;;;;;5.20;0.80;;;;;;;7.31;58.06;100098.53;5589932;31;34679;-67
2022/01/30 11:50:44;;;;;;;4.28;0.62;;;;;;;7.29;57.20;100097.84;5589423;31;33924;-67
2022/01/30 11:53:47;;;;;;;3.70;0.82;;;;;;;7.35;57.80;100086.69;5589709;31;33994;-67
2022/01/30 11:56:50;;;;;;;9.27;1.42;;;;;;;7.32;57.07;100089.62;5589415;31;34693;-66
2022/01/30 11:59:54;;;;;;;3.22;0.85;;;;;;;7.42;56.12;100075.34;5589501;31;34610;-66
2022/01/30 12:03:20;;;;;;;4.80;0.90;;;;;;;7.82;55.37;100077.41;5589220;31;34245;-66
2022/01/30 12:06:23;;;;;;;5.72;1.00;;;;;;;7.43;56.47;100106.03;5589319;31;33994;-67
2022/01/30 12:09:29;;;;;;;3.25;0.68;;;;;;;7.13;55.10;100117.00;5589254;31;33839;-66
2022/01/30 12:12:58;;;;;;;7.62;0.77;;;;;;;7.28;55.23;100101.47;5588791;31;33992;-68
2022/01/30 12:16:01;;;;;;;6.20;1.00;;;;;;;7.34;53.68;100067.37;5589282;31;33904;-68
2022/01/30 12:19:04;;;;;;;2.28;0.82;;;;;;;8.33;50.87;100103.91;5589135;31;33967;-66
2022/01/30 12:22:15;;;;;;;4.50;1.00;;;;;;;8.02;51.22;100109.69;5588703;31;34068;-67
2022/01/30 12:25:25;;;;;;;2.80;0.90;;;;;;;7.82;51.29;100121.47;5589430;31;34713;-67
2022/01/30 12:28:41;;;;;;;3.95;0.90;;;;;;;7.66;53.61;100101.06;5588880;31;34555;-68
2022/01/30 12:31:44;;;;;;;2.37;0.75;;;;;;;7.88;51.64;100107.63;5589056;31;34051;-66
2022/01/30 12:35:07;;;;;;;3.47;0.70;;;;;;;7.58;53.63;100106.31;5588883;31;34180;-66
2022/01/30 12:38:10;;;;;;;2.62;0.70;;;;;;;7.68;53.96;100125.50;5588936;31;34319;-67
2022/01/30 12:41:19;;;;;;;5.32;0.80;;;;;;;7.55;52.97;100127.72;5588690;31;34644;-67
2022/01/30 12:44:29;;;;;;;6.40;1.02;;;;;;;7.33;54.35;100147.53;5588721;31;33994;-66
2022/01/30 12:47:48;;;;;;;9.97;0.97;;;;;;;7.07;55.44;100095.72;5574790;31;33817;-70
2022/01/30 12:50:57;;;;;;;4.53;0.80;;;;;;;7.10;54.65;100092.75;5588603;31;35231;-68
2022/01/30 12:54:00;;;;;;;4.70;0.60;;;;;;;7.21;53.68;100090.69;5588473;31;34614;-67
2022/01/30 12:57:04;;;;;;;5.05;1.00;;;;;;;6.91;54.74;100112.22;5588567;31;34000;-66
2022/01/30 13:00:10;;;;;;;2.72;0.93;;;;;;;6.33;59.90;100109.13;5588392;31;33941;-67
2022/01/30 13:03:20;;;;;;;5.03;0.93;;;;;;;6.55;57.95;100082.34;5588282;31;33882;-66
2022/01/30 13:06:35;;;;;;;5.95;1.37;;;;;;;6.63;58.04;100074.53;5588309;31;34137;-67
2022/01/30 13:09:38;;;;;;;4.60;0.85;;;;;;;6.65;57.75;100108.63;5588731;31;35298;-66
2022/01/30 13:12:45;;;;;;;3.33;0.82;;;;;;;6.66;57.55;100118.22;5588280;31;33897;-67
2022/01/30 13:15:56;;;;;;;4.53;0.68;;;;;;;6.59;58.45;100123.25;5588284;31;35225;-67
2022/01/30 13:19:00;;;;;;;1.52;0.57;;;;;;;6.51;59.26;100128.44;5588063;31;35245;-65
2022/01/30 13:22:06;;;;;;;2.22;0.80;;;;;;;6.34;61.18;100164.28;5588046;31;33978;-67
2022/01/30 13:25:12;;;;;;;3.40;0.80;;;;;;;5.69;67.48;100128.34;5574223;31;34058;-67
2022/01/30 13:28:21;;;;;;;5.65;0.98;;;;;;;5.33;69.57;100140.44;5587638;31;35156;-66
2022/01/30 13:31:25;;;;;;;5.75;1.33;;;;;;;5.52;67.01;100169.34;5573918;31;34674;-68
2022/01/30 13:34:30;;;;;;;3.62;0.90;;;;;;;5.64;66.66;100156.88;5589247;31;35214;-69
2022/01/30 13:37:37;;;;;;;4.07;1.20;;;;;;;5.70;66.30;100156.31;5590446;31;34280;-65
2022/01/30 13:40:53;;;;;;;6.37;1.40;;;;;;;5.77;66.14;100172.34;5590494;31;34469;-67
2022/01/30 13:43:58;;;;;;;5.03;1.10;;;;;;;5.65;67.35;100172.53;5590532;31;35139;-66
2022/01/30 13:47:03;;;;;;;9.10;1.25;;;;;;;5.63;68.68;100160.47;5577126;31;34044;-67
2022/01/30 13:50:18;;;;;;;4.40;0.77;;;;;;;5.68;66.98;100163.50;5590534;31;34508;-64
2022/01/30 13:53:21;;;;;;;8.80;1.40;;;;;;;5.79;63.60;100144.09;5590698;31;33873;-66
2022/01/30 13:56:23;;;;;;;3.35;0.75;;;;;;;5.81;65.93;100147.44;5590708;31;33976;-66
2022/01/30 13:59:27;;;;;;;7.40;1.12;;;;;;;5.96;65.06;100149.47;5576736;31;35135;-67
2022/01/30 14:02:30;;;;;;;8.43;1.45;;;;;;;5.98;64.93;100157.25;5576735;31;34867;-66
2022/01/30 14:05:41;;;;;;;2.72;0.95;;;;;;;5.94;65.25;100147.97;5576877;31;33978;-67
2022/01/30 14:09:03;;;;;;;7.85;1.35;;;;;;;5.86;63.47;100146.00;5590387;31;34177;-65
2022/01/30 14:12:07;;;;;;;3.40;0.70;;;;;;;5.95;64.46;100192.59;5590593;31;34309;-67
2022/01/30 14:15:12;;;;;;;4.68;0.90;;;;;;;5.97;63.24;100152.94;5590596;31;35100;-65
2022/01/30 14:18:18;;;;;;;3.03;0.90;;;;;;;5.92;64.74;100140.22;5590338;31;33967;-66
2022/01/30 14:21:28;;;;;;;7.30;1.20;;;;;;;5.95;63.71;100150.47;5590602;31;33994;-68
2022/01/30 14:24:31;;;;;;;2.58;0.80;;;;;;;6.05;62.59;100139.91;5590450;31;34632;-67
2022/01/30 14:27:39;;;;;;;3.25;1.02;;;;;;;6.21;59.94;100161.16;5590136;31;33889;-66
2022/01/30 14:30:42;;;;;;;2.10;0.75;;;;;;;6.18;60.69;100131.66;5589924;31;34626;-67
2022/01/30 14:33:46;;;;;;;5.97;0.82;;;;;;;6.22;60.42;100143.56;5590216;31;33998;-67
2022/01/30 14:36:50;;;;;;;2.90;0.82;;;;;;;6.29;59.66;100156.03;5590465;31;34333;-68
2022/01/30 14:39:56;;;;;;;5.37;1.10;;;;;;;6.30;58.86;100164.72;5590023;31;34291;-67
2022/01/30 14:42:59;;;;;;;5.37;1.05;;;;;;;6.30;59.17;100160.28;5590407;31;33927;-68
2022/01/30 14:46:02;;;;;;;10.73;1.33;;;;;;;6.29;59.55;100173.63;5589889;31;33981;-70
2022/01/30 14:49:05;;;;;;;5.55;1.20;;;;;;;6.24;58.96;100142.44;5590061;31;33948;-68
2022/01/30 14:52:08;;;;;;;9.15;1.35;;;;;;;6.24;58.24;100175.87;5590335;31;34044;-67
2022/01/30 14:55:12;;;;;;;5.35;1.27;;;;;;;6.23;58.84;100161.88;5590289;31;34316;-66
2022/01/30 14:58:15;;;;;;;5.15;0.70;;;;;;;6.22;58.73;100177.81;5589895;31;34657;-68
2022/01/30 15:01:19;;;;;;;11.05;1.58;;;;;;;6.18;58.82;100144.81;5590135;31;34571;-66
2022/01/30 15:04:23;;;;;;;6.85;0.90;;;;;;;6.15;58.15;100147.75;5590530;31;34689;-67
2022/01/30 15:07:28;;;;;;;5.12;1.00;;;;;;;6.20;56.84;100148.13;5590026;31;33838;-67
2022/01/30 15:10:31;;;;;;;5.75;1.12;;;;;;;6.26;56.10;100148.38;5589827;31;34197;-67
2022/01/30 15:13:37;;;;;;;5.55;1.00;;;;;;;6.28;55.69;100164.06;5589990;31;34599;-67
2022/01/30 15:16:45;;;;;;;9.50;1.17;;;;;;;6.24;55.71;100133.72;5589939;31;34313;-68
2022/01/30 15:19:49;;;;;;;7.00;1.00;;;;;;;6.28;55.61;100140.34;5589786;31;34031;-68
2022/01/30 15:22:51;;;;;;;5.60;1.12;;;;;;;6.22;55.87;100140.91;5589309;31;33948;-67